^^
Datos históricos de la estación: Murcia-Puente Tocinos
Diario Informe para Marzo 1, 2019 Unidades:  Ingés    Métrico   Ambas
Diario Semanal Mensual Anual
  Máxima: Mínima: Promedio:
Temperatura: 80.6 °F 60.3 °F 70.7 °F
Punto de rocio: 53.2 °F 37.2 °F 45.7 °F
Humedad: 67.9% 22.2% 44%
Velocidad viento: 11.8mph 0mph 4.8mph
Racha viento: 19mph - -
Viento- - ESE
Presión: 30.2 in 30.1 in -
Precipitación: 0 in    
 
 
Tabla de datos para Marzo 1, 2019
Hora Temperatura Punto de rocio Presión Viento Velocidad viento Racha viento Humedad Intensidad lluvia(por hora) Nubes
00:04 66.7 °F 52.9 °F 30.2 in ENE 1.4 mph 3.5 mph 61% 0 in
00:09 66.7 °F 52.9 °F 30.2 in NNE 1.6 mph 3.6 mph 61% 0 in
00:14 66.7 °F 53.1 °F 30.2 in NNE 1.8 mph 4 mph 61.4% 0 in
00:19 66.7 °F 53.2 °F 30.2 in NNE 1.2 mph 2.4 mph 62% 0 in
00:24 66.6 °F 53.2 °F 30.2 in Calm   4.6 mph 62% 0 in
00:29 66.6 °F 53.1 °F 30.2 in NO 0.7 mph 5 mph 62% 0 in
00:34 66.6 °F 53.1 °F 30.2 in NO 2 mph 3 mph 62.1% 0 in
00:39 66.6 °F 53.1 °F 30.2 in NO 1.3 mph 2 mph 62% 0 in
00:44 66.4 °F 53.1 °F 30.2 in Calm   2.3 mph 62% 0 in
00:49 66.4 °F 53.1 °F 30.2 in Calm   2 mph 62% 0 in
00:54 66.4 °F 53.1 °F 30.2 in Calm     62% 0 in
00:59 66.4 °F 52.9 °F 30.2 in Calm     62% 0 in
01:04 66.2 °F 52.3 °F 30.2 in Calm   3.1 mph 61% 0 in
01:09 66 °F 51.6 °F 30.2 in Este 0.5 mph 4 mph 60% 0 in
01:14 65.7 °F 51.6 °F 30.2 in Este 1.4 mph 5 mph 60.3% 0 in
01:19 65.7 °F 51.8 °F 30.2 in Este 1.6 mph 5 mph 61% 0 in
01:24 65.5 °F 51.6 °F 30.2 in ESE 2 mph 4.6 mph 61% 0 in
01:29 65.1 °F 51.4 °F 30.2 in SE 1.9 mph 5 mph 61% 0 in
01:34 65.1 °F 51.4 °F 30.2 in SE 1.8 mph 2 mph 61.1% 0 in
01:39 64.9 °F 51.6 °F 30.2 in SE 1.1 mph   62% 0 in
01:44 64.9 °F 51.6 °F 30.2 in Calm     62% 0 in
01:49 64.9 °F 51.6 °F 30.2 in Calm     62% 0 in
01:54 64.8 °F 51.8 °F 30.2 in Calm   2.9 mph 62.6% 0 in
01:59 64.8 °F 51.8 °F 30.2 in SE 0.6 mph 3 mph 62.9% 0 in
02:04 64.6 °F 51.6 °F 30.2 in SE 1.4 mph 3.5 mph 63% 0 in
02:09 64.4 °F 51.4 °F 30.2 in SE 1.6 mph 3.5 mph 63% 0 in
02:14 64.2 °F 51.4 °F 30.2 in SE 1.8 mph 3.6 mph 63% 0 in
02:19 64.2 °F 51.6 °F 30.2 in SE 1.9 mph 4 mph 63.8% 0 in
02:24 64 °F 51.6 °F 30.2 in SE 2 mph 4 mph 64% 0 in
02:29 64 °F 51.6 °F 30.2 in SE 1.9 mph 3.1 mph 64% 0 in
02:34 63.9 °F 51.8 °F 30.2 in SE 1.8 mph 3.5 mph 64.9% 0 in
02:39 63.9 °F 51.8 °F 30.2 in SE 1.2 mph 2 mph 65% 0 in
02:44 63.7 °F 51.8 °F 30.2 in Calm   2.4 mph 65% 0 in
02:49 63.7 °F 51.6 °F 30.2 in Calm   3.5 mph 65% 0 in
02:54 63.7 °F 51.8 °F 30.2 in Calm   3 mph 65.3% 0 in
02:59 63.5 °F 52 °F 30.2 in Calm   2 mph 66% 0 in
03:04 63.3 °F 51.8 °F 30.2 in Calm   1.4 mph 66% 0 in
03:09 63.3 °F 51.8 °F 30.2 in Calm   2.4 mph 66% 0 in
03:14 63.3 °F 51.3 °F 30.2 in Calm   4.6 mph 65.1% 0 in
03:19 63.3 °F 51.6 °F 30.2 in SE 0.5 mph 5 mph 65.7% 0 in
03:24 63.1 °F 51.6 °F 30.2 in SE 1.4 mph 3 mph 66% 0 in
03:29 63 °F 51.6 °F 30.2 in SE 0.9 mph 2 mph 66.2% 0 in
03:34 63 °F 51.4 °F 30.2 in Calm   3.5 mph 66.3% 0 in
03:39 62.8 °F 51.3 °F 30.2 in Calm   4.6 mph 66% 0 in
03:44 62.6 °F 51.1 °F 30.2 in Calm   5 mph 66% 0 in
03:49 62.6 °F 51.1 °F 30.2 in SE 0.5 mph 3 mph 66% 0 in
03:54 62.4 °F 51.3 °F 30.1 in SE 1.4 mph 3.6 mph 66.7% 0 in
03:59 62.4 °F 51.1 °F 30.1 in ESE 1.6 mph 4.6 mph 66.7% 0 in
04:04 62.2 °F 50.9 °F 30.2 in ESE 1.8 mph 5 mph 66.6% 0 in
04:09 62.1 °F 50.7 °F 30.2 in ESE 1.9 mph 5.2 mph 66.5% 0 in
04:14 61.9 °F 50.2 °F 30.2 in SE 2 mph 5.8 mph 65.2% 0 in
04:19 61.9 °F 50.2 °F 30.2 in SE 2.4 mph 6 mph 65.6% 0 in
04:24 61.9 °F 50.4 °F 30.1 in SE 3.1 mph 5 mph 65.7% 0 in
04:29 61.9 °F 50 °F 30.1 in SE 2.5 mph 2.3 mph 65% 0 in
04:34 61.9 °F 50.4 °F 30.1 in SE 1.4 mph 3.5 mph 65.8% 0 in
04:39 61.7 °F 50.4 °F 30.1 in SE 1.4 mph 3 mph 66.5% 0 in
04:44 61.5 °F 50.5 °F 30.1 in SE 1.4 mph 2 mph 67% 0 in
04:49 61.3 °F 50.4 °F 30.1 in SE 0.9 mph   67% 0 in
04:54 61.3 °F 50.5 °F 30.1 in Calm   1.4 mph 67.7% 0 in
04:59 61.3 °F 50.7 °F 30.1 in Calm   3.5 mph 67.9% 0 in
05:04 61.3 °F 50.4 °F 30.1 in Calm   3.5 mph 67% 0 in
05:09 61.3 °F 50.4 °F 30.1 in SE 0.7 mph 3.6 mph 67% 0 in
05:14 61.3 °F 50.4 °F 30.1 in SE 2 mph 4.6 mph 67% 0 in
05:19 61.3 °F 50 °F 30.1 in SE 2.2 mph 5 mph 66.6% 0 in
05:24 61.2 °F 50 °F 30.1 in SE 2.4 mph 5 mph 66.7% 0 in
05:29 61.2 °F 49.5 °F 30.1 in SSE 2.5 mph 5 mph 65.2% 0 in
05:34 61.2 °F 49.6 °F 30.1 in SSE 2.9 mph 5 mph 65.8% 0 in
05:39 61 °F 49.1 °F 30.1 in SSE 2.7 mph 5 mph 65% 0 in
05:44 61 °F 49.1 °F 30.1 in SSE 2.4 mph 5 mph 65% 0 in
05:49 61 °F 49.1 °F 30.1 in SSE 2.4 mph 4 mph 65% 0 in
05:54 60.8 °F 48.9 °F 30.1 in SSE 2.4 mph 4 mph 65% 0 in
05:59 60.6 °F 48.7 °F 30.1 in SSE 2.2 mph 3.5 mph 65% 0 in
06:04 60.6 °F 49.1 °F 30.1 in SSE 1.8 mph 3.1 mph 65.6% 0 in
06:09 60.6 °F 49.3 °F 30.1 in SSE 1.9 mph 4.6 mph 66% 0 in
06:14 60.6 °F 49.1 °F 30.1 in SSE 2 mph 5 mph 66% 0 in
06:19 60.4 °F 48.9 °F 30.1 in SSE 2.5 mph 5.9 mph 66% 0 in
06:24 60.4 °F 48.9 °F 30.1 in Sur 3.6 mph 6 mph 66% 0 in
06:29 60.3 °F 48.7 °F 30.1 in SSO 3.4 mph 6.2 mph 65.8% 0 in
06:34 60.3 °F 48.4 °F 30.1 in SSO 3.1 mph 6.2 mph 65% 0 in
06:39 60.3 °F 48.4 °F 30.1 in SSO 3.4 mph 6.2 mph 65% 0 in
06:44 60.4 °F 48.4 °F 30.1 in SSO 4 mph 6 mph 64.8% 0 in
06:49 60.4 °F 48.2 °F 30.1 in SO 3.9 mph 6 mph 64% 0 in
06:54 60.6 °F 48.4 °F 30.1 in SSO 3.6 mph 6 mph 64% 0 in
06:59 60.6 °F 48.2 °F 30.1 in SSO 3.6 mph 6.2 mph 63.6% 0 in
07:04 60.8 °F 48 °F 30.2 in SSO 3.6 mph 6.2 mph 63% 0 in
07:09 60.8 °F 48.4 °F 30.2 in SO 3.7 mph 6 mph 63.7% 0 in
07:14 61 °F 48.7 °F 30.2 in SO 4 mph 8.5 mph 64% 0 in
07:19 61 °F 48.4 °F 30.2 in SO 4.1 mph 9 mph 63.4% 0 in
07:24 61 °F 48.4 °F 30.2 in SO 4.3 mph 8.1 mph 63% 0 in
07:29 61.2 °F 48.6 °F 30.2 in SO 4.5 mph 8 mph 63% 0 in
07:34 61.2 °F 48.6 °F 30.2 in SO 4.7 mph 7 mph 63% 0 in
07:39 61.3 °F 48.4 °F 30.2 in SO 4.3 mph 7 mph 62.1% 0 in
07:44 61.5 °F 48.4 °F 30.2 in SO 3.6 mph 7 mph 62% 0 in
07:49 61.9 °F 48.6 °F 30.2 in SO 3.6 mph 7.4 mph 62% 0 in
07:54 61.9 °F 48.7 °F 30.2 in SO 3.6 mph 7.4 mph 62% 0 in
07:59 62.1 °F 48.9 °F 30.2 in SO 3.6 mph 7 mph 61.9% 0 in
08:04 62.2 °F 48.9 °F 30.2 in SO 3.6 mph 7 mph 61.6% 0 in
08:09 62.2 °F 48.7 °F 30.2 in SO 3.9 mph 7 mph 61.3% 0 in
08:14 62.2 °F 49.1 °F 30.2 in OSO 4.3 mph 7 mph 62% 0 in
08:19 62.4 °F 49.1 °F 30.2 in SSO 4 mph 6.4 mph 61.4% 0 in
08:24 62.8 °F 48.9 °F 30.2 in SSO 3.6 mph 7 mph 60.6% 0 in
08:29 63 °F 48.9 °F 30.2 in SSO 3.7 mph 7 mph 60% 0 in
08:34 63.1 °F 48.6 °F 30.2 in SO 4 mph 6.2 mph 59.2% 0 in
08:39 63.3 °F 48.7 °F 30.2 in SO 4 mph 7.4 mph 59% 0 in
08:44 63.3 °F 48.7 °F 30.2 in OSO 4 mph 7 mph 59% 0 in
08:49 63.7 °F 49.1 °F 30.2 in OSO 3.9 mph 7 mph 59% 0 in
08:54 63.9 °F 48.7 °F 30.2 in OSO 3.6 mph 8.1 mph 58% 0 in
08:59 64 °F 48.7 °F 30.2 in OSO 3.7 mph 8 mph 57.5% 0 in
09:04 64.2 °F 48.7 °F 30.2 in OSO 4 mph 7 mph 57% 0 in
09:09 64.4 °F 48.6 °F 30.2 in OSO 4.1 mph 6.4 mph 56.5% 0 in
09:14 64.8 °F 48.6 °F 30.2 in OSO 4.3 mph 6 mph 55.6% 0 in
09:19 65.1 °F 48.9 °F 30.2 in SO 4 mph 6.4 mph 55.7% 0 in
09:24 65.7 °F 48.6 °F 30.2 in SO 3.6 mph 7 mph 54.3% 0 in
09:29 65.7 °F 48.6 °F 30.2 in SO 3.9 mph 7 mph 54% 0 in
09:34 65.8 °F 48.7 °F 30.2 in SO 4.3 mph 7 mph 54% 0 in
09:39 66.2 °F 49.1 °F 30.2 in SSO 4.2 mph 7.4 mph 53.9% 0 in
09:44 66.6 °F 49.1 °F 30.2 in SSO 4 mph 7 mph 53.2% 0 in
09:49 66.9 °F 49.3 °F 30.2 in SSO 4 mph 7.4 mph 53% 0 in
09:54 67.3 °F 49.6 °F 30.2 in SSO 4 mph 7 mph 53% 0 in
09:59 67.5 °F 49.6 °F 30.2 in Sur 4.3 mph 7 mph 53% 0 in
10:04 67.8 °F 49.8 °F 30.2 in OSO 4.7 mph 6.2 mph 52.5% 0 in
10:09 68.4 °F 49.8 °F 30.2 in Oeste 4 mph 6.2 mph 51.8% 0 in
10:14 68.5 °F 49.5 °F 30.2 in Oeste 2.9 mph 6 mph 50.6% 0 in
10:19 68.7 °F 48.9 °F 30.2 in Oeste 3 mph 6 mph 49.1% 0 in
10:24 69.3 °F 48.7 °F 30.2 in NO 3.1 mph 6 mph 47.9% 0 in
10:29 70 °F 48.6 °F 30.2 in ONO 2.9 mph 7.4 mph 46.7% 0 in
10:34 70.3 °F 48.6 °F 30.2 in SO 2.4 mph 7 mph 45.8% 0 in
10:39 70.9 °F 48.4 °F 30.2 in SSE 2.5 mph 6.9 mph 44.7% 0 in
10:44 71.4 °F 48.4 °F 30.2 in ENE 2.9 mph 7 mph 43.9% 0 in
10:49 72 °F 46.4 °F 30.2 in ENE 2.7 mph 6.2 mph 40% 0 in
10:54 72.3 °F 45.9 °F 30.2 in Este 2.4 mph 6.9 mph 38.8% 0 in
10:59 72.7 °F 44.1 °F 30.2 in SE 2.9 mph 7 mph 35.8% 0 in
11:04 72.9 °F 43.3 °F 30.2 in ESE 3.6 mph 6.9 mph 34.7% 0 in
11:09 73 °F 43.2 °F 30.2 in ENE 3.6 mph 7 mph 34.3% 0 in
11:14 73.4 °F 42.8 °F 30.2 in Este 3.6 mph 6 mph 33.4% 0 in
11:19 73.8 °F 43.3 °F 30.2 in North 3.4 mph 6.9 mph 33.6% 0 in
11:24 73.9 °F 43.3 °F 30.2 in NE 3.1 mph 7 mph 33.4% 0 in
11:29 74.3 °F 43.3 °F 30.2 in NE 3.4 mph 7.4 mph 33% 0 in
11:34 74.3 °F 43.5 °F 30.2 in NE 4 mph 7 mph 33.3% 0 in
11:39 74.7 °F 43.5 °F 30.2 in ESE 3.6 mph 6.2 mph 33% 0 in
11:44 75.2 °F 43.9 °F 30.2 in North 2.9 mph 6.9 mph 32.6% 0 in
11:49 75.9 °F 43.3 °F 30.2 in ENE 2.7 mph 8.7 mph 31.3% 0 in
11:54 75.9 °F 42.4 °F 30.2 in NE 2.4 mph 11.5 mph 30.2% 0 in
11:59 75.7 °F 42.6 °F 30.2 in NE 3.7 mph 12 mph 30.7% 0 in
12:04 75.7 °F 42.6 °F 30.2 in NE 5.9 mph 12.7 mph 30.7% 0 in
12:09 75.7 °F 42.3 °F 30.2 in NE 5.7 mph 13 mph 30.2% 0 in
12:14 75.9 °F 41.7 °F 30.2 in ESE 5.4 mph 10.4 mph 29.3% 0 in
12:19 76.1 °F 42.6 °F 30.2 in ENE 5.6 mph 10.4 mph 30.2% 0 in
12:24 76.5 °F 42.6 °F 30.1 in Este 5.9 mph 9.7 mph 30% 0 in
12:29 76.8 °F 43 °F 30.1 in Este 5.5 mph 11.5 mph 30% 0 in
12:34 76.8 °F 43.2 °F 30.1 in ENE 4.7 mph 12 mph 30.1% 0 in
12:39 76.6 °F 43 °F 30.1 in NE 5.3 mph 12 mph 30% 0 in
12:44 76.6 °F 43.3 °F 30.1 in NNE 6.2 mph 12 mph 30.4% 0 in
12:49 77 °F 43 °F 30.1 in ENE 5.5 mph 11.5 mph 29.8% 0 in
12:54 77.4 °F 41.4 °F 30.1 in Este 4.3 mph 13.8 mph 27.7% 0 in
12:59 77.4 °F 42.3 °F 30.1 in ENE 5 mph 14 mph 28.7% 0 in
13:04 77.2 °F 42.3 °F 30.1 in ENE 6.2 mph 13 mph 28.7% 0 in
13:09 77.4 °F 41.9 °F 30.1 in NE 5.9 mph 13 mph 28.2% 0 in
13:14 77.5 °F 41.9 °F 30.1 in NE 5.4 mph 15.2 mph 28.2% 0 in
13:19 77.5 °F 41.4 °F 30.1 in NE 6.4 mph 15 mph 27.4% 0 in
13:24 77.5 °F 41.9 °F 30.1 in NNE 8.1 mph 15 mph 28% 0 in
13:29 77.9 °F 42.4 °F 30.1 in ENE 7.4 mph 16.1 mph 28.2% 0 in
13:34 78.1 °F 42.4 °F 30.1 in NE 6.2 mph 16 mph 28.2% 0 in
13:39 78.3 °F 42.4 °F 30.1 in ENE 6.3 mph 15 mph 27.9% 0 in
13:44 78.4 °F 41.4 °F 30.1 in Este 6.4 mph 17.3 mph 26.8% 0 in
13:49 78.3 °F 40.8 °F 30.1 in Este 6.6 mph 17 mph 26.4% 0 in
13:54 78.4 °F 40.3 °F 30.1 in Este 6.9 mph 13.8 mph 25.6% 0 in
13:59 78.8 °F 41 °F 30.1 in NE 6.6 mph 14 mph 26% 0 in
14:04 79.2 °F 41.2 °F 30.1 in ENE 6.2 mph 13.8 mph 25.9% 0 in
14:09 79 °F 41.2 °F 30.1 in ENE 6.1 mph 15 mph 26% 0 in
14:14 79 °F 41.2 °F 30.1 in NE 5.9 mph 17.3 mph 26.1% 0 in
14:19 78.6 °F 41 °F 30.1 in NE 7 mph 17.5 mph 26.1% 0 in
14:24 78.6 °F 41.5 °F 30.1 in ENE 8.7 mph 17.3 mph 26.7% 0 in
14:29 79.3 °F 41.7 °F 30.1 in ENE 8.3 mph 17 mph 26.4% 0 in
14:34 79.3 °F 42.4 °F 30.1 in NE 7.4 mph 17.3 mph 27% 0 in
14:39 79 °F 43 °F 30.1 in NE 7.8 mph 17 mph 27.9% 0 in
14:44 79.3 °F 42.4 °F 30.1 in NE 8.5 mph 17.8 mph 27% 0 in
14:49 79.3 °F 42.3 °F 30.1 in ENE 8.2 mph 18 mph 26.8% 0 in
14:54 79.7 °F 42.8 °F 30.1 in NE 7.6 mph 12.7 mph 27.2% 0 in
14:59 80.1 °F 43 °F 30.1 in ENE 7.3 mph 15 mph 27% 0 in
15:04 79.9 °F 42.3 °F 30.1 in NE 6.9 mph 15.6 mph 26.4% 0 in
15:09 79.5 °F 41.7 °F 30.1 in NNE 7.5 mph 16.1 mph 26.1% 0 in
15:14 79.2 °F 41.5 °F 30.1 in NE 8.5 mph 16.1 mph 26.2% 0 in
15:19 79.5 °F 42.6 °F 30.1 in NE 8 mph 16 mph 27% 0 in
15:24 79.9 °F 42.4 °F 30.1 in ENE 6.9 mph 17.5 mph 26.5% 0 in
15:29 80.1 °F 42.1 °F 30.1 in ENE 7.1 mph 17 mph 26.1% 0 in
15:34 79.9 °F 41.4 °F 30.1 in ENE 7.4 mph 16.1 mph 25.5% 0 in
15:39 79.5 °F 41.5 °F 30.1 in ENE 7.8 mph 16 mph 25.9% 0 in
15:44 80.2 °F 40.5 °F 30.1 in NE 8.5 mph 14 mph 24.4% 0 in
15:49 80.1 °F 40.1 °F 30.1 in ENE 8.5 mph 15 mph 24% 0 in
15:54 80.1 °F 39.9 °F 30.1 in ENE 8.5 mph 15 mph 24% 0 in
15:59 80.2 °F 39.4 °F 30.1 in NE 8.1 mph 15 mph 23.3% 0 in
16:04 80.2 °F 39.4 °F 30.1 in ENE 7.6 mph 18.5 mph 23.3% 0 in
16:09 80.2 °F 39.2 °F 30.1 in NE 7.6 mph 19 mph 23% 0 in
16:14 80.1 °F 39.7 °F 30.1 in NE 7.6 mph 17.3 mph 23.7% 0 in
16:19 80.2 °F 39.4 °F 30.1 in ENE 7.8 mph 13.7 mph 23.2% 0 in
16:24 80.4 °F 39.7 °F 30.1 in Este 8.1 mph 14 mph 23.4% 0 in
16:29 80.4 °F 39.4 °F 30.1 in ENE 8.1 mph 18.4 mph 23.2% 0 in
16:34 80.6 °F 39.6 °F 30.1 in ENE 8.1 mph 18 mph 23.2% 0 in
16:39 80.4 °F 39.6 °F 30.1 in Este 8 mph 15 mph 23.3% 0 in
16:44 80.4 °F 39 °F 30.1 in ENE 7.6 mph 17.3 mph 22.8% 0 in
16:49 80.2 °F 39.6 °F 30.1 in NE 7.8 mph 17 mph 23.4% 0 in
16:54 80.2 °F 39.4 °F 30.1 in NE 8.1 mph 17.3 mph 23.3% 0 in
16:59 80.2 °F 39.4 °F 30.1 in NE 8.3 mph 17.5 mph 23.3% 0 in
17:04 79.9 °F 38.3 °F 30.1 in NE 8.5 mph 18.5 mph 22.7% 0 in
17:09 79.7 °F 39 °F 30.1 in NE 9 mph 19 mph 23.4% 0 in
17:14 80.1 °F 39 °F 30.1 in NE 10 mph 15 mph 23.1% 0 in
17:19 80.1 °F 39 °F 30.1 in NE 9.9 mph 19 mph 23.2% 0 in
17:24 79.9 °F 38.3 °F 30.1 in ENE 9.7 mph 19 mph 22.7% 0 in
17:29 79.7 °F 38.1 °F 30.1 in NE 9.5 mph 18.4 mph 22.6% 0 in
17:34 79.5 °F 38.5 °F 30.1 in NE 9.2 mph 18.4 mph 23% 0 in
17:39 79.3 °F 38.3 °F 30.1 in NE 10.1 mph 18.4 mph 23% 0 in
17:44 79.3 °F 38.5 °F 30.1 in NE 11.8 mph 18 mph 23.2% 0 in
17:49 79.3 °F 38.7 °F 30.1 in NE 11.1 mph 17 mph 23.3% 0 in
17:54 79.3 °F 38.5 °F 30.1 in NE 10 mph 16 mph 23.1% 0 in
17:59 79.9 °F 38.8 °F 30.1 in NE 9.7 mph 16.1 mph 23% 0 in
18:04 79.5 °F 38.7 °F 30.1 in NE 9.2 mph 16.3 mph 23.1% 0 in
18:09 79.3 °F 38.3 °F 30.1 in ENE 9.5 mph 17.3 mph 23.1% 0 in
18:14 79.2 °F 38.3 °F 30.1 in NE 10 mph 17 mph 23.1% 0 in
18:19 79.2 °F 37.9 °F 30.1 in ENE 10 mph 16.1 mph 22.9% 0 in
18:24 79.2 °F 37.2 °F 30.1 in ENE 10 mph 18.4 mph 22.2% 0 in
18:29 79.2 °F 37.8 °F 30.1 in ENE 9.4 mph 18 mph 22.7% 0 in
18:34 79.2 °F 38.3 °F 30.1 in NE 8.5 mph 18.4 mph 23% 0 in
18:39 79 °F 37.9 °F 30.1 in NE 8.9 mph 18 mph 23% 0 in
18:44 79 °F 38.7 °F 30.1 in NE 9.7 mph 17.5 mph 23.6% 0 in
18:49 78.8 °F 38.5 °F 30.1 in NE 9.8 mph 17.3 mph 23.5% 0 in
18:54 78.6 °F 38.8 °F 30.1 in NE 10 mph 17 mph 24% 0 in
18:59 78.6 °F 39 °F 30.1 in NE 9.7 mph 16.1 mph 24.2% 0 in
19:04 78.4 °F 38.8 °F 30.1 in NE 9.2 mph 16.1 mph 24.1% 0 in
19:09 78.4 °F 38.7 °F 30.1 in NE 9 mph 16 mph 24% 0 in
19:14 78.4 °F 38.7 °F 30.1 in NE 8.7 mph 17.5 mph 24% 0 in
19:19 78.1 °F 38.5 °F 30.1 in NE 9.1 mph 17.3 mph 24.1% 0 in
19:24 77.7 °F 38.7 °F 30.1 in NE 9.7 mph 17 mph 24.6% 0 in
19:29 77.7 °F 39.6 °F 30.1 in NE 9.7 mph 16.1 mph 25.4% 0 in
19:34 77.5 °F 39.7 °F 30.1 in NE 9.7 mph 16.3 mph 25.7% 0 in
19:39 77.4 °F 39.7 °F 30.1 in NE 9.5 mph 16 mph 26% 0 in
19:44 77.4 °F 39.7 °F 30.1 in NE 9.2 mph 14.5 mph 26% 0 in
19:49 77.4 °F 39.7 °F 30.1 in NE 8.6 mph 15.2 mph 26% 0 in
19:54 77.2 °F 39.6 °F 30.1 in NE 7.6 mph 15 mph 26% 0 in
19:59 77.2 °F 39.7 °F 30.1 in NE 7.6 mph 15 mph 26.3% 0 in
20:04 76.8 °F 40.3 °F 30.1 in NE 7.6 mph 14 mph 27% 0 in
20:09 76.6 °F 40.1 °F 30.1 in NE 7.6 mph 14 mph 27% 0 in
20:14 76.5 °F 40.3 °F 30.1 in NE 7.6 mph 13 mph 27.3% 0 in
20:19 76.3 °F 40.8 °F 30.1 in ENE 7.2 mph 13.8 mph 28% 0 in
20:24 75.9 °F 40.5 °F 30.1 in NE 6.4 mph 15 mph 28% 0 in
20:29 75.9 °F 40.8 °F 30.1 in NE 6.4 mph 15 mph 28.4% 0 in
20:34 75.7 °F 41 °F 30.1 in NE 6.4 mph 13.8 mph 28.9% 0 in
20:39 75.4 °F 40.8 °F 30.1 in NE 7 mph 14 mph 28.9% 0 in
20:44 75 °F 41 °F 30.1 in NE 8.1 mph 13 mph 29.4% 0 in
20:49 75 °F 41.5 °F 30.1 in NE 7.4 mph 12 mph 30% 0 in
20:54 74.8 °F 41.4 °F 30.1 in NE 6.2 mph 12.7 mph 30% 0 in
20:59 74.5 °F 41.4 °F 30.1 in NE 6.9 mph 13 mph 30.3% 0 in
21:04 74.3 °F 41.5 °F 30.1 in NE 8.1 mph 12 mph 31% 0 in
21:09 73.9 °F 42.1 °F 30.1 in NE 7.5 mph 10 mph 31.8% 0 in
21:14 73.8 °F 42.1 °F 30.1 in NE 6.4 mph 11.8 mph 32% 0 in
21:19 73.6 °F 42.4 °F 30.1 in NE 6.3 mph 12 mph 32.7% 0 in
21:24 73.2 °F 43 °F 30.1 in NE 6.2 mph 9 mph 33.7% 0 in
21:29 72.9 °F 43.2 °F 30.1 in NE 5.8 mph 8.5 mph 34.4% 0 in
21:34 72.7 °F 43.3 °F 30.1 in NE 5.2 mph 9 mph 35% 0 in
21:39 72.3 °F 43.9 °F 30.1 in NE 5.2 mph 8 mph 36% 0 in
21:44 72.1 °F 44.2 °F 30.1 in NE 5.2 mph 8.1 mph 36.7% 0 in
21:49 72 °F 44.8 °F 30.1 in NE 4.8 mph 8.1 mph 37.7% 0 in
21:54 71.8 °F 45 °F 30.1 in NE 4.3 mph 8 mph 38.5% 0 in
21:59 71.4 °F 45.3 °F 30.1 in NE 4.3 mph 7 mph 39.2% 0 in
22:04 71.1 °F 45.7 °F 30.1 in NE 4.3 mph 7.4 mph 40% 0 in
22:09 70.9 °F 46 °F 30.1 in NE 4.3 mph 7.4 mph 40.9% 0 in
22:14 70.7 °F 46 °F 30.1 in NE 4.3 mph 8.1 mph 41.5% 0 in
22:19 70.3 °F 46.2 °F 30.1 in NE 4.7 mph 8 mph 42% 0 in
22:24 70.3 °F 46.4 °F 30.1 in NE 5.2 mph 8.5 mph 42.4% 0 in
22:29 70.2 °F 46.6 °F 30.1 in NE 5.3 mph 9 mph 43% 0 in
22:34 70.2 °F 46.6 °F 30.1 in NE 5.4 mph 9 mph 43% 0 in
22:39 70.2 °F 46.6 °F 30.1 in NE 5 mph 7 mph 43% 0 in
22:44 70 °F 46.4 °F 30.1 in NE 4.3 mph 8.1 mph 43% 0 in
22:49 70 °F 46.4 °F 30.1 in NE 4.5 mph 8.1 mph 43% 0 in
22:54 69.8 °F 46.4 °F 30.1 in NE 4.7 mph 7 mph 43% 0 in
22:59 69.8 °F 46.2 °F 30.1 in NE 4.5 mph 6.4 mph 43% 0 in
23:04 69.6 °F 46 °F 30.1 in NE 4.3 mph 7.4 mph 43% 0 in
23:09 69.6 °F 46.2 °F 30.1 in NE 4.5 mph 7 mph 43.3% 0 in
23:14 69.4 °F 46.6 °F 30.1 in NE 4.7 mph 8.5 mph 44% 0 in
23:19 69.4 °F 46.6 °F 30.1 in NE 5 mph 9.2 mph 44% 0 in
23:24 69.6 °F 46.8 °F 30.1 in NE 5.4 mph 9.2 mph 44% 0 in
23:29 69.4 °F 47.1 °F 30.1 in NE 5.6 mph 9.2 mph 44.8% 0 in
23:34 69.3 °F 46.9 °F 30.1 in NE 5.9 mph 9 mph 45% 0 in
23:39 69.1 °F 46.8 °F 30.1 in NE 5.7 mph 8.1 mph 45% 0 in
23:44 69.1 °F 46.8 °F 30.1 in NE 5.4 mph 8.1 mph 45% 0 in
23:49 69.1 °F 47.3 °F 30.1 in NE 5.2 mph 7.4 mph 45.8% 0 in
23:54 69.3 °F 47.7 °F 30.1 in NE 4.7 mph 8.1 mph 46% 0 in
23:59 69.3 °F 47.7 °F 30.1 in NE 4.5 mph 8 mph 46% 0 in
Murcia-Puente Tocinos, España
Compliments of Weather Underground - 3 mb

La estación de MeteoMurcia.com, publica sus datos en los siguientes proyectos:

Weather Underground PWS IMURCIAP2 Meteoclimatic www.awekas.at

W3Counter
Web Analytics